HESH METAR and TAF | Updated Today

HESH METAR

Sharm El Sheikh International Airport

Observation time: 41 min. ago

HESH 010700Z 01015KT CAVOK 33/18 Q1014 NOSIG

Need help? Read our tutorial on how to read METARs or read the parsed version below.

Sharm El Sheikh International Airport (HESH) METAR

  • Weather conditions on Sat, 01 Oct 2022 07:00:00 +0000 (41 min. ago):
  • Present conditions: Dry
  • Clouds: Clear skies
  • Visibility: Greater than 10 km
  • Wind: 10 degrees at 15 knots
  • Temperature: 33 celsius
  • Dew point: 18 celsius
  • Pressure: 1014 millibars
  • Remarks: None


Useful to know...

  • Codes: HESH/SSH
  • Airport elevation: 143ft
  • Municipality: Sharm el-Sheikh
  • Country: Egypt
  • Continent: Asia
  • Wikipedia page

HESH TAF

Sharm El Sheikh International Airport

TAF HESH 010500Z 0106/0212 01010G20KT CAVOK
Observation time: 2:41 hr. ago
Need help? Read our tutorial on how to read TAFs or read the parsed version below.

Parsed version of TAF for Sharm El Sheikh International Airport (HESH)

  • From 01 October at 06:00 UTC, to day 02 of the month at 12:00 UTC
  • Visibility: Greater than 10 km
  • Wind: 10 degrees at 10

Airports near HESH

HETR Weather
Region:

El Tor Airport

Not found in our database